createdAt,value
2023-04-05T00:01:36.712Z,0.47
2023-04-05T00:04:05.247Z,0.45
2023-04-05T00:06:35.882Z,0.47
2023-04-05T00:09:07.048Z,0.52
2023-04-05T00:11:37.742Z,0.51
2023-04-05T00:14:04.851Z,0.54
2023-04-05T00:16:32.090Z,0.53
2023-04-05T00:19:00.332Z,0.51
2023-04-05T00:21:27.713Z,0.50
2023-04-05T00:23:58.465Z,0.55
2023-04-05T00:26:27.693Z,0.56
2023-04-05T00:29:01.688Z,0.57
2023-04-05T00:31:29.492Z,0.53
2023-04-05T00:33:56.640Z,0.45
2023-04-05T00:36:23.851Z,0.38
2023-04-05T00:38:51.156Z,0.33
2023-04-05T00:41:18.446Z,0.30
2023-04-05T00:43:46.871Z,0.29
2023-04-05T00:46:14.083Z,0.38
2023-04-05T00:48:41.514Z,0.34
2023-04-05T00:51:11.712Z,0.30
2023-04-05T00:53:40.736Z,0.34
2023-04-05T00:56:10.440Z,0.34
2023-04-05T00:58:37.563Z,0.40
2023-04-05T01:01:21.293Z,0.33
2023-04-05T01:04:10.205Z,0.28
2023-04-05T01:06:59.781Z,0.27
2023-04-05T01:09:48.638Z,0.27
2023-04-05T01:12:18.286Z,0.22
2023-04-05T01:14:59.495Z,0.25
2023-04-05T01:17:39.837Z,0.33
2023-04-05T01:20:33.493Z,0.24
2023-04-05T01:23:27.706Z,0.26
2023-04-05T01:26:10.342Z,0.22
2023-04-05T01:29:22.285Z,0.22
2023-04-05T01:31:54.785Z,0.25
2023-04-05T01:34:42.087Z,0.30
2023-04-05T01:37:17.628Z,0.35
2023-04-05T01:39:48.401Z,0.43
2023-04-05T01:42:24.725Z,0.48
2023-04-05T01:44:56.620Z,0.42
2023-04-05T01:47:32.481Z,0.39
2023-04-05T01:49:59.769Z,0.44
2023-04-05T01:52:27.716Z,0.45
2023-04-05T01:54:54.821Z,0.45
2023-04-05T01:57:24.904Z,0.41
2023-04-05T01:59:55.048Z,0.35
2023-04-05T02:02:25.814Z,0.35
2023-04-05T02:04:53.420Z,0.31
2023-04-05T02:07:23.286Z,0.33
2023-04-05T02:09:50.339Z,0.29
2023-04-05T02:12:19.690Z,0.33
2023-04-05T02:14:53.839Z,0.33
2023-04-05T02:17:21.974Z,0.32
2023-04-05T02:20:02.270Z,0.41
2023-04-05T02:22:32.343Z,0.42
2023-04-05T02:24:59.449Z,0.42
2023-04-05T02:27:26.559Z,0.42
2023-04-05T02:29:55.767Z,0.33
2023-04-05T02:32:23.843Z,0.17
2023-04-05T02:34:52.388Z,0.08
2023-04-05T02:37:23.277Z,0.04
2023-04-05T02:39:50.349Z,0.00
2023-04-05T02:42:17.382Z,-0.01
2023-04-05T02:44:44.639Z,-0.03
2023-04-05T02:47:21.341Z,-0.03
2023-04-05T02:49:53.845Z,-0.02
2023-04-05T02:52:25.776Z,-0.02
2023-04-05T02:54:53.768Z,-0.04
2023-04-05T02:57:26.327Z,-0.02
2023-04-05T03:00:01.249Z,-0.01
2023-04-05T03:02:31.554Z,-0.01
2023-04-05T03:05:02.415Z,-0.02
2023-04-05T03:07:33.250Z,-0.04
2023-04-05T03:10:03.364Z,-0.04
2023-04-05T03:12:31.801Z,-0.08
2023-04-05T03:14:59.334Z,-0.08
2023-04-05T03:17:28.488Z,-0.07
2023-04-05T03:20:00.894Z,-0.10
2023-04-05T03:22:28.316Z,-0.11
2023-04-05T03:24:59.813Z,-0.13
2023-04-05T03:27:31.737Z,-0.12
2023-04-05T03:30:02.493Z,-0.14
2023-04-05T03:32:32.179Z,-0.11
2023-04-05T03:35:07.580Z,-0.13
2023-04-05T03:37:35.831Z,-0.11
2023-04-05T03:40:08.733Z,-0.12
2023-04-05T03:42:36.233Z,-0.11
2023-04-05T03:45:06.315Z,-0.11
2023-04-05T03:47:33.714Z,-0.07
2023-04-05T03:50:04.815Z,-0.09
2023-04-05T03:52:33.391Z,-0.11
2023-04-05T03:55:01.355Z,-0.13
2023-04-05T03:57:31.949Z,-0.22
2023-04-05T04:00:17.318Z,-0.22
2023-04-05T04:02:45.987Z,-0.18
2023-04-05T04:05:17.939Z,-0.14
2023-04-05T04:07:48.857Z,-0.06
2023-04-05T04:10:27.509Z,-0.09
2023-04-05T04:12:58.312Z,-0.14
2023-04-05T04:15:30.030Z,-0.14
2023-04-05T04:18:11.982Z,-0.12
2023-04-05T04:20:58.643Z,-0.14
2023-04-05T04:23:38.557Z,-0.21
2023-04-05T04:26:29.985Z,-0.22
2023-04-05T04:29:16.841Z,-0.23
2023-04-05T04:32:00.922Z,-0.28
2023-04-05T04:34:58.714Z,-0.35
2023-04-05T04:37:38.399Z,-0.38
2023-04-05T04:40:52.858Z,-0.42
2023-04-05T04:43:49.029Z,-0.50
2023-04-05T04:46:43.038Z,-0.63
2023-04-05T04:49:42.992Z,-0.68
2023-04-05T04:52:10.016Z,-0.76
2023-04-05T04:54:42.588Z,-0.74
2023-04-05T04:57:11.477Z,-0.84
2023-04-05T04:59:42.394Z,-0.86
2023-04-05T05:02:11.099Z,-0.90
2023-04-05T05:04:38.272Z,-0.86
2023-04-05T05:07:09.575Z,-0.81
2023-04-05T05:09:36.691Z,-0.71
2023-04-05T05:12:08.875Z,-0.71
2023-04-05T05:14:36.011Z,-0.57
2023-04-05T05:17:05.328Z,-0.56
2023-04-05T05:19:36.916Z,-0.51
2023-04-05T05:22:03.985Z,-0.52
2023-04-05T05:24:31.050Z,-0.55
2023-04-05T05:26:58.103Z,-0.51
2023-04-05T05:29:25.696Z,-0.53
2023-04-05T05:31:53.067Z,-0.47
2023-04-05T05:34:20.344Z,-0.17
2023-04-05T05:36:52.589Z,-0.02
2023-04-05T05:39:20.681Z,0.08
2023-04-05T05:41:48.472Z,0.69
2023-04-05T05:44:15.591Z,1.01
2023-04-05T05:46:42.664Z,1.45
2023-04-05T05:49:09.843Z,1.82
2023-04-05T05:51:37.524Z,2.21
2023-04-05T05:54:04.808Z,2.34
2023-04-05T05:56:33.780Z,2.15
2023-04-05T05:59:01.818Z,1.73
2023-04-05T06:01:29.713Z,1.81
2023-04-05T06:03:56.857Z,1.40
2023-04-05T06:06:24.075Z,1.52
2023-04-05T06:08:51.630Z,1.40
2023-04-05T06:11:22.316Z,1.15
2023-04-05T06:13:52.532Z,1.36
2023-04-05T06:16:24.662Z,2.21
2023-04-05T06:18:52.819Z,3.10
2023-04-05T06:21:19.958Z,3.61
2023-04-05T06:23:50.265Z,3.93
2023-04-05T06:26:23.212Z,4.73
2023-04-05T06:28:50.465Z,5.03
2023-04-05T06:31:22.308Z,4.73
2023-04-05T06:33:49.528Z,4.88
2023-04-05T06:36:18.373Z,6.31
2023-04-05T06:38:48.654Z,6.79
2023-04-05T06:41:16.006Z,7.22
2023-04-05T06:43:43.094Z,7.49
2023-04-05T06:46:12.737Z,7.30
2023-04-05T06:48:40.390Z,5.94
2023-04-05T06:51:07.764Z,4.83
2023-04-05T06:53:35.061Z,3.75
2023-04-05T06:56:03.317Z,3.39
2023-04-05T06:58:31.067Z,2.89
2023-04-05T07:01:04.866Z,2.95
2023-04-05T07:03:32.688Z,3.01
2023-04-05T07:06:02.957Z,3.20
2023-04-05T07:08:34.646Z,3.40
2023-04-05T07:11:04.000Z,3.28
2023-04-05T07:13:32.344Z,3.40
2023-04-05T07:16:01.818Z,3.18
2023-04-05T07:18:30.293Z,3.13
2023-04-05T07:21:02.102Z,3.01
2023-04-05T07:23:30.327Z,3.07
2023-04-05T07:26:08.102Z,3.10
2023-04-05T07:28:38.197Z,3.03
2023-04-05T07:31:07.350Z,2.88
2023-04-05T07:33:34.368Z,3.15
2023-04-05T07:36:04.713Z,3.27
2023-04-05T07:38:34.812Z,3.28
2023-04-05T07:41:02.275Z,3.04
2023-04-05T07:43:30.004Z,3.10
2023-04-05T07:46:06.319Z,3.34
2023-04-05T07:48:33.847Z,3.27
2023-04-05T07:51:07.360Z,3.42
2023-04-05T07:53:35.641Z,3.67
2023-04-05T07:56:12.259Z,4.02
2023-04-05T07:58:41.433Z,4.28
2023-04-05T08:01:10.915Z,4.28
2023-04-05T08:03:40.156Z,4.55
2023-04-05T08:06:19.619Z,4.45
2023-04-05T08:08:47.577Z,4.52
2023-04-05T08:11:15.111Z,4.84
2023-04-05T08:13:43.786Z,4.96
2023-04-05T08:16:20.688Z,5.18
2023-04-05T08:18:48.290Z,4.73
2023-04-05T08:21:16.250Z,5.00
2023-04-05T08:23:43.399Z,4.29
2023-04-05T08:26:10.818Z,3.73
2023-04-05T08:28:37.927Z,3.57
2023-04-05T08:31:05.207Z,3.82
2023-04-05T08:33:32.686Z,4.40
2023-04-05T08:36:09.427Z,4.36
2023-04-05T08:38:37.927Z,4.22
2023-04-05T08:41:16.044Z,3.85
2023-04-05T08:44:02.574Z,3.79
2023-04-05T08:46:32.010Z,3.66
2023-04-05T08:49:13.902Z,4.66
2023-04-05T08:51:41.674Z,5.93
2023-04-05T08:54:08.781Z,6.08
2023-04-05T08:56:37.688Z,6.21
2023-04-05T08:59:10.005Z,6.15
2023-04-05T09:01:41.984Z,5.83
2023-04-05T09:04:15.692Z,5.49
2023-04-05T09:06:44.611Z,5.37
2023-04-05T09:09:16.625Z,5.57
2023-04-05T09:11:44.372Z,5.32
2023-04-05T09:14:11.932Z,4.98
2023-04-05T09:16:40.721Z,4.72
2023-04-05T09:19:09.654Z,4.51
2023-04-05T09:22:01.767Z,4.29
2023-04-05T09:24:41.786Z,4.36
2023-04-05T09:27:11.961Z,4.44
2023-04-05T09:29:42.086Z,4.45
2023-04-05T09:32:12.529Z,4.72
2023-04-05T09:34:42.856Z,4.97
2023-04-05T09:37:20.402Z,5.02
2023-04-05T09:39:52.453Z,5.20
2023-04-05T09:42:23.300Z,6.22
2023-04-05T09:45:02.531Z,7.21
2023-04-05T09:47:37.236Z,7.83
2023-04-05T09:50:16.910Z,6.70
2023-04-05T09:52:44.476Z,6.00
2023-04-05T09:55:12.190Z,5.24
2023-04-05T09:57:42.989Z,4.81
2023-04-05T10:00:38.033Z,5.13
2023-04-05T10:03:05.626Z,5.73
2023-04-05T10:05:33.649Z,5.68
2023-04-05T10:08:02.084Z,5.72
2023-04-05T10:10:30.609Z,6.27
2023-04-05T10:12:58.997Z,7.34
2023-04-05T10:15:26.679Z,7.75
2023-04-05T10:18:04.131Z,8.30
2023-04-05T10:20:36.566Z,8.13
2023-04-05T10:23:10.349Z,7.06
2023-04-05T10:25:53.661Z,6.42
2023-04-05T10:28:32.071Z,5.49
2023-04-05T10:31:10.030Z,4.78
2023-04-05T10:33:45.396Z,5.10
2023-04-05T10:36:42.571Z,5.68
2023-04-05T10:39:22.712Z,6.12
2023-04-05T10:41:55.476Z,6.05
2023-04-05T10:44:26.698Z,6.64
2023-04-05T10:46:55.670Z,6.50
2023-04-05T10:49:39.524Z,6.77
2023-04-05T10:52:07.229Z,6.48
2023-04-05T10:54:37.217Z,6.08
2023-04-05T10:57:09.511Z,6.27
2023-04-05T10:59:43.357Z,5.90
2023-04-05T11:02:11.156Z,5.62
2023-04-05T11:04:41.906Z,5.54
2023-04-05T11:07:19.765Z,5.53
2023-04-05T11:10:06.645Z,5.63
2023-04-05T11:12:48.646Z,5.98
2023-04-05T11:15:25.739Z,6.00
2023-04-05T11:18:05.003Z,5.98
2023-04-05T11:21:03.118Z,5.80
2023-04-05T11:23:33.081Z,5.45
2023-04-05T11:26:09.258Z,4.90
2023-04-05T11:28:40.430Z,5.19
2023-04-05T11:31:23.124Z,5.39
2023-04-05T11:33:56.892Z,5.32
2023-04-05T11:36:45.638Z,5.59
2023-04-05T11:39:19.093Z,5.82
2023-04-05T11:41:47.508Z,5.83
2023-04-05T11:44:18.755Z,5.89
2023-04-05T11:46:46.959Z,5.88
2023-04-05T11:49:16.910Z,5.50
2023-04-05T11:51:48.842Z,5.60
2023-04-05T11:54:31.892Z,6.15
2023-04-05T11:57:04.655Z,6.42
2023-04-05T11:59:33.943Z,6.72
2023-04-05T12:02:05.586Z,7.54
2023-04-05T12:04:32.859Z,8.00
2023-04-05T12:07:20.841Z,8.52
2023-04-05T12:10:04.509Z,9.05
2023-04-05T12:12:43.110Z,9.18
2023-04-05T12:15:22.821Z,8.71
2023-04-05T12:17:54.697Z,8.39
2023-04-05T12:20:27.469Z,8.54
2023-04-05T12:22:57.970Z,8.99
2023-04-05T12:25:26.305Z,8.92
2023-04-05T12:27:53.421Z,8.05
2023-04-05T12:30:24.349Z,8.36
2023-04-05T12:32:56.553Z,8.56
2023-04-05T12:35:35.137Z,8.77
2023-04-05T12:38:05.739Z,8.70
2023-04-05T12:40:38.370Z,8.47
2023-04-05T12:43:10.953Z,8.31
2023-04-05T12:45:44.657Z,7.99
2023-04-05T12:48:13.918Z,7.34
2023-04-05T12:50:48.510Z,6.98
2023-04-05T12:53:26.876Z,6.66
2023-04-05T12:55:58.602Z,6.70
2023-04-05T12:58:36.783Z,6.89
2023-04-05T13:01:04.482Z,7.07
2023-04-05T13:03:33.948Z,7.31
2023-04-05T13:06:01.080Z,7.14
2023-04-05T13:08:28.501Z,7.24
2023-04-05T13:10:57.906Z,6.99
2023-04-05T13:13:34.428Z,6.97
2023-04-05T13:16:02.698Z,7.25
2023-04-05T13:18:32.830Z,7.22
2023-04-05T13:21:08.056Z,6.92
2023-04-05T13:23:41.763Z,6.69
2023-04-05T13:26:09.131Z,6.54
2023-04-05T13:28:37.060Z,6.04
2023-04-05T13:31:06.394Z,5.57
2023-04-05T13:33:34.914Z,5.25
2023-04-05T13:36:02.005Z,4.80
2023-04-05T13:38:30.201Z,4.68
2023-04-05T13:41:00.360Z,4.95
2023-04-05T13:43:28.084Z,5.04
2023-04-05T13:45:56.022Z,4.97
2023-04-05T13:48:26.155Z,4.88
2023-04-05T13:50:53.423Z,4.97
2023-04-05T13:53:20.836Z,5.28
2023-04-05T13:55:50.096Z,5.02
2023-04-05T13:58:17.139Z,5.00
2023-04-05T14:00:44.499Z,5.17
2023-04-05T14:03:11.826Z,5.40
2023-04-05T14:05:46.484Z,5.85
2023-04-05T14:08:16.670Z,6.14
2023-04-05T14:10:44.405Z,6.60
2023-04-05T14:13:13.158Z,6.42
2023-04-05T14:15:43.929Z,6.67
2023-04-05T14:18:17.304Z,6.85
2023-04-05T14:20:44.375Z,7.77
2023-04-05T14:23:14.090Z,8.51
2023-04-05T14:25:41.447Z,8.99
2023-04-05T14:28:08.597Z,8.67
2023-04-05T14:30:36.662Z,8.73
2023-04-05T14:33:03.799Z,8.73
2023-04-05T14:35:31.003Z,8.17
2023-04-05T14:37:58.196Z,8.42
2023-04-05T14:40:26.872Z,8.44
2023-04-05T14:42:54.117Z,7.79
2023-04-05T14:45:23.278Z,7.74
2023-04-05T14:47:50.476Z,7.54
2023-04-05T14:50:17.930Z,7.46
2023-04-05T14:52:48.746Z,7.87
2023-04-05T14:55:16.595Z,7.78
2023-04-05T14:57:43.901Z,7.78
2023-04-05T15:00:13.273Z,7.53
2023-04-05T15:02:42.349Z,7.55
2023-04-05T15:05:10.364Z,7.75
2023-04-05T15:07:43.295Z,8.11
2023-04-05T15:10:14.462Z,8.27
2023-04-05T15:12:44.359Z,8.03
2023-04-05T15:15:11.806Z,8.02
2023-04-05T15:17:40.551Z,8.01
2023-04-05T15:20:09.249Z,8.70
2023-04-05T15:22:39.130Z,9.18
2023-04-05T15:25:10.465Z,9.14
2023-04-05T15:27:40.155Z,8.80
2023-04-05T15:30:10.937Z,8.87
2023-04-05T15:32:40.844Z,8.72
2023-04-05T15:35:10.995Z,8.25
2023-04-05T15:37:39.283Z,7.45
2023-04-05T15:40:10.353Z,7.14
2023-04-05T15:42:42.709Z,6.80
2023-04-05T15:45:10.602Z,7.28
2023-04-05T15:47:37.814Z,7.67
2023-04-05T15:50:10.577Z,8.12
2023-04-05T15:52:40.049Z,7.89
2023-04-05T15:55:07.552Z,7.98
2023-04-05T15:57:34.595Z,7.68
2023-04-05T16:00:01.786Z,7.00
2023-04-05T16:02:31.863Z,6.47
2023-04-05T16:05:11.917Z,6.35
2023-04-05T16:07:39.172Z,6.03
2023-04-05T16:10:07.992Z,5.90
2023-04-05T16:12:35.389Z,5.96
2023-04-05T16:15:07.837Z,5.75
2023-04-05T16:17:35.908Z,5.41
2023-04-05T16:20:03.367Z,5.18
2023-04-05T16:22:31.342Z,5.17
2023-04-05T16:24:58.551Z,5.09
2023-04-05T16:27:25.651Z,5.13
2023-04-05T16:29:53.056Z,5.08
2023-04-05T16:32:20.846Z,4.92
2023-04-05T16:34:48.138Z,4.61
2023-04-05T16:37:15.715Z,4.45
2023-04-05T16:39:42.884Z,4.46
2023-04-05T16:42:10.130Z,4.41
2023-04-05T16:44:37.453Z,4.35
2023-04-05T16:47:04.848Z,4.28
2023-04-05T16:49:34.195Z,4.24
2023-04-05T16:52:01.563Z,4.22
2023-04-05T16:54:28.823Z,4.25
2023-04-05T16:56:59.322Z,4.22
2023-04-05T16:59:34.988Z,4.18
2023-04-05T17:02:02.143Z,4.21
2023-04-05T17:04:30.259Z,4.15
2023-04-05T17:06:58.177Z,4.12
2023-04-05T17:09:29.654Z,4.06
2023-04-05T17:11:56.840Z,3.94
2023-04-05T17:14:27.223Z,3.91
2023-04-05T17:16:54.999Z,3.83
2023-04-05T17:19:22.582Z,3.74
2023-04-05T17:21:49.705Z,3.63
2023-04-05T17:24:19.963Z,3.53
2023-04-05T17:26:47.174Z,3.45
2023-04-05T17:29:14.337Z,3.27
2023-04-05T17:31:47.433Z,3.15
2023-04-05T17:34:24.300Z,3.12
2023-04-05T17:36:53.534Z,3.05
2023-04-05T17:39:23.627Z,2.94
2023-04-05T17:41:53.905Z,2.90
2023-04-05T17:44:21.367Z,2.93
2023-04-05T17:47:01.265Z,2.87
2023-04-05T17:49:36.666Z,2.86
2023-04-05T17:52:05.042Z,2.74
2023-04-05T17:54:37.073Z,2.62
2023-04-05T17:57:17.262Z,2.61
2023-04-05T17:59:44.833Z,2.51
2023-04-05T18:02:12.391Z,2.48
2023-04-05T18:04:40.924Z,2.50
2023-04-05T18:07:08.734Z,2.49
2023-04-05T18:09:37.588Z,2.57
2023-04-05T18:12:05.651Z,2.60
2023-04-05T18:14:33.569Z,2.62
2023-04-05T18:17:02.580Z,2.63
2023-04-05T18:19:29.667Z,2.64
2023-04-05T18:21:58.285Z,2.65
2023-04-05T18:24:26.152Z,2.63
2023-04-05T18:26:53.707Z,2.67
2023-04-05T18:29:22.767Z,2.70
2023-04-05T18:31:52.612Z,2.73
2023-04-05T18:34:19.934Z,2.73
2023-04-05T18:36:47.968Z,2.78
2023-04-05T18:39:18.204Z,2.84
2023-04-05T18:41:46.568Z,2.84
2023-04-05T18:44:14.172Z,2.82
2023-04-05T18:46:41.414Z,2.84
2023-04-05T18:49:08.792Z,2.84
2023-04-05T18:51:36.653Z,2.83
2023-04-05T18:54:07.742Z,2.82
2023-04-05T18:56:35.087Z,2.84
2023-04-05T18:59:02.219Z,2.87
2023-04-05T19:01:29.584Z,2.99
2023-04-05T19:03:59.843Z,2.95
2023-04-05T19:06:28.331Z,2.81
2023-04-05T19:08:55.676Z,2.74
2023-04-05T19:11:28.887Z,2.76
2023-04-05T19:13:56.485Z,2.64
2023-04-05T19:16:23.774Z,2.60
2023-04-05T19:18:50.914Z,2.69
2023-04-05T19:21:18.134Z,2.72
2023-04-05T19:23:45.230Z,2.73
2023-04-05T19:26:12.329Z,2.70
2023-04-05T19:28:39.846Z,2.82
2023-04-05T19:31:10.094Z,2.64
2023-04-05T19:33:39.895Z,2.51
2023-04-05T19:36:07.300Z,2.54
2023-04-05T19:38:37.089Z,2.55
2023-04-05T19:41:05.410Z,2.71
2023-04-05T19:43:41.368Z,2.43
2023-04-05T19:46:12.087Z,2.54
2023-04-05T19:48:45.123Z,2.64
2023-04-05T19:51:14.649Z,2.68
2023-04-05T19:53:47.987Z,2.72
2023-04-05T19:56:18.619Z,2.75
2023-04-05T19:58:53.610Z,2.70
2023-04-05T20:01:35.648Z,2.81
2023-04-05T20:04:17.558Z,2.68
2023-04-05T20:06:54.236Z,2.79
2023-04-05T20:09:24.053Z,2.83
2023-04-05T20:11:56.648Z,2.76
2023-04-05T20:14:46.410Z,2.81
2023-04-05T20:17:13.586Z,2.87
2023-04-05T20:19:56.031Z,2.70
2023-04-05T20:22:24.489Z,2.61
2023-04-05T20:24:51.803Z,2.66
2023-04-05T20:27:18.938Z,2.65
2023-04-05T20:29:46.293Z,2.48
2023-04-05T20:32:17.244Z,2.34
2023-04-05T20:34:48.811Z,2.39
2023-04-05T20:37:15.941Z,2.42
2023-04-05T20:39:43.233Z,2.41
2023-04-05T20:42:11.572Z,2.42
2023-04-05T20:44:38.872Z,2.30
2023-04-05T20:47:06.513Z,2.31
2023-04-05T20:49:38.682Z,2.21
2023-04-05T20:52:07.762Z,2.24
2023-04-05T20:54:35.454Z,2.28
2023-04-05T20:57:03.366Z,2.24
2023-04-05T20:59:33.912Z,2.26
2023-04-05T21:02:01.211Z,2.23
2023-04-05T21:04:30.117Z,2.22
2023-04-05T21:06:58.164Z,2.27
2023-04-05T21:09:25.584Z,2.21
2023-04-05T21:11:53.537Z,2.21
2023-04-05T21:14:20.992Z,2.20
2023-04-05T21:16:57.167Z,2.15
2023-04-05T21:19:26.588Z,2.12
2023-04-05T21:21:53.727Z,1.98
2023-04-05T21:24:20.937Z,2.00
2023-04-05T21:26:47.955Z,1.94
2023-04-05T21:29:15.016Z,1.89
2023-04-05T21:31:42.561Z,2.05
2023-04-05T21:34:09.913Z,1.99
2023-04-05T21:36:40.638Z,1.95
2023-04-05T21:39:08.128Z,1.80
2023-04-05T21:41:35.375Z,1.72
2023-04-05T21:44:02.481Z,1.79
2023-04-05T21:46:29.593Z,1.68
2023-04-05T21:48:56.728Z,1.66
2023-04-05T21:51:24.097Z,1.68
2023-04-05T21:53:51.396Z,1.69
2023-04-05T21:56:19.193Z,1.68
2023-04-05T21:58:46.496Z,1.70
2023-04-05T22:01:14.494Z,1.59
2023-04-05T22:03:41.666Z,1.53
2023-04-05T22:06:09.563Z,1.48
2023-04-05T22:08:36.632Z,1.40
2023-04-05T22:11:04.000Z,1.40
2023-04-05T22:13:31.582Z,1.40
2023-04-05T22:15:58.707Z,1.36
2023-04-05T22:18:25.923Z,1.32
2023-04-05T22:20:53.063Z,1.30
2023-04-05T22:23:20.744Z,1.26
2023-04-05T22:25:48.202Z,1.25
2023-04-05T22:28:15.538Z,1.22
2023-04-05T22:30:45.187Z,1.18
2023-04-05T22:33:15.186Z,1.11
2023-04-05T22:35:42.839Z,1.02
2023-04-05T22:38:09.988Z,0.86
2023-04-05T22:40:39.993Z,0.78
2023-04-05T22:43:07.370Z,0.74
2023-04-05T22:45:34.672Z,0.73
2023-04-05T22:48:07.533Z,0.77
2023-04-05T22:50:37.672Z,0.67
2023-04-05T22:53:06.031Z,0.67
2023-04-05T22:55:33.208Z,0.71
2023-04-05T22:58:00.540Z,0.71
2023-04-05T23:00:27.912Z,0.59
2023-04-05T23:02:56.553Z,0.58
2023-04-05T23:05:24.305Z,0.53
2023-04-05T23:07:54.038Z,0.50
2023-04-05T23:10:24.265Z,0.49
2023-04-05T23:12:51.543Z,0.44
2023-04-05T23:15:18.860Z,0.42
2023-04-05T23:17:46.350Z,0.36
2023-04-05T23:20:13.899Z,0.29
2023-04-05T23:22:41.240Z,0.23
2023-04-05T23:25:09.166Z,0.28
2023-04-05T23:27:36.645Z,0.22
2023-04-05T23:30:04.432Z,0.12
2023-04-05T23:32:31.605Z,0.06
2023-04-05T23:34:58.813Z,0.13
2023-04-05T23:37:26.132Z,0.16
2023-04-05T23:39:53.229Z,0.11
2023-04-05T23:42:23.177Z,0.29
2023-04-05T23:44:50.610Z,0.21
2023-04-05T23:47:17.665Z,0.24
2023-04-05T23:49:45.480Z,0.25
2023-04-05T23:52:12.495Z,0.17
2023-04-05T23:54:41.843Z,0.06
2023-04-05T23:57:09.080Z,-0.03
2023-04-05T23:59:36.504Z,0.01
